Time;durP1;ratioP1;P1;durP2;ratioP2;P2;SDS_P1;SDS_P2;PMS_P1;PMS_P2;Temp;Humidity;BMP_temperature;BMP_pressure;BME280_temperature;BME280_humidity;BME280_pressure;Samples;Min_cycle;Max_cycle;Signal;HPM_P1;HPM_P2
2022/04/25 00:03:33;;;;;;;3.38;1.63;;;18.10;58.40;;;;;;10510159;28;20374;-59
2022/04/25 00:08:34;;;;;;;2.10;1.25;;;18.10;58.40;;;;;;10494435;28;20028;-58
2022/04/25 00:13:35;;;;;;;2.75;1.88;;;18.10;58.40;;;;;;10494470;28;20032;-59
2022/04/25 00:18:36;;;;;;;2.10;1.60;;;18.10;58.30;;;;;;10494384;28;20036;-60
2022/04/25 00:23:37;;;;;;;2.50;1.63;;;18.10;58.20;;;;;;10494424;28;20032;-59
2022/04/25 00:28:38;;;;;;;3.25;1.70;;;18.10;58.30;;;;;;10494642;28;20469;-60
2022/04/25 00:33:38;;;;;;;1.92;1.52;;;18.10;58.30;;;;;;10493724;28;20119;-59
2022/04/25 00:38:39;;;;;;;3.38;1.80;;;18.10;58.30;;;;;;10494715;28;20523;-59
2022/04/25 00:43:40;;;;;;;3.50;2.30;;;18.10;58.20;;;;;;10493837;28;20039;-60
2022/04/25 00:48:40;;;;;;;1.83;1.40;;;18.10;58.10;;;;;;10498813;28;20044;-60
2022/04/25 00:53:44;;;;;;;3.42;1.95;;;18.00;58.00;;;;;;10501848;28;20111;-60
2022/04/25 00:58:45;;;;;;;2.03;1.55;;;18.00;58.00;;;;;;10502302;28;20039;-58
2022/04/25 01:03:50;;;;;;;2.50;1.92;;;18.00;58.10;;;;;;10488727;28;20484;-58
2022/04/25 01:08:51;;;;;;;2.80;1.60;;;18.00;58.20;;;;;;10459856;28;20029;-60
2022/04/25 01:13:52;;;;;;;1.95;1.40;;;18.00;58.20;;;;;;10459712;28;20021;-60
2022/04/25 01:18:52;;;;;;;1.88;1.30;;;18.00;58.20;;;;;;10475495;28;20389;-59
2022/04/25 01:29:13;;;;;;;2.63;1.87;;;18.00;58.10;;;;;;10500518;28;20028;-59
2022/04/25 01:34:14;;;;;;;2.58;1.50;;;17.90;58.00;;;;;;10515601;28;20056;-57
2022/04/25 01:39:15;;;;;;;2.80;1.90;;;17.90;58.10;;;;;;10500082;28;20099;-59
2022/04/25 01:44:15;;;;;;;2.10;1.40;;;18.00;58.10;;;;;;10499880;28;20610;-59
2022/04/25 01:49:16;;;;;;;2.17;1.30;;;17.90;58.00;;;;;;10515320;28;20070;-60
2022/04/25 01:54:26;;;;;;;2.55;1.88;;;17.90;58.00;;;;;;10499567;28;20055;-59
2022/04/25 01:59:27;;;;;;;3.47;1.83;;;17.90;58.00;;;;;;10497771;28;20111;-59
2022/04/25 02:04:29;;;;;;;2.67;1.75;;;17.90;58.00;;;;;;10499319;28;20024;-58
2022/04/25 02:09:30;;;;;;;3.20;2.28;;;17.90;58.00;;;;;;10499528;28;20036;-60
2022/04/25 02:14:31;;;;;;;2.80;1.95;;;17.90;58.00;;;;;;10498776;28;20433;-59
2022/04/25 02:19:35;;;;;;;2.15;1.60;;;17.90;58.00;;;;;;10498601;28;20023;-59
2022/04/25 02:24:36;;;;;;;2.55;1.52;;;17.90;58.00;;;;;;10498148;28;20500;-60
2022/04/25 02:29:39;;;;;;;3.05;1.83;;;17.90;58.00;;;;;;10496848;28;20030;-60
2022/04/25 02:34:41;;;;;;;2.63;2.17;;;17.90;58.00;;;;;;10498614;28;20032;-59
2022/04/25 02:39:41;;;;;;;2.85;1.88;;;17.90;58.00;;;;;;10497590;28;20028;-58
2022/04/25 02:44:42;;;;;;;2.25;1.50;;;17.80;57.90;;;;;;10513148;28;20036;-59
2022/04/25 02:49:43;;;;;;;3.00;1.75;;;17.80;57.90;;;;;;10497294;28;20027;-59
2022/04/25 02:54:44;;;;;;;2.92;1.70;;;17.80;57.90;;;;;;10497126;28;20115;-60
2022/04/25 02:59:44;;;;;;;2.45;1.70;;;17.80;57.90;;;;;;10512468;28;20149;-58
2022/04/25 03:04:45;;;;;;;2.53;1.63;;;17.80;57.90;;;;;;10496419;28;20056;-59
2022/04/25 03:09:46;;;;;;;3.25;2.25;;;17.80;57.80;;;;;;10495861;28;20524;-60
2022/04/25 03:14:46;;;;;;;2.83;1.90;;;17.80;57.80;;;;;;10496231;28;20063;-59
2022/04/25 03:19:47;;;;;;;3.25;2.35;;;17.80;57.90;;;;;;10495881;28;20472;-59
2022/04/25 03:24:48;;;;;;;2.78;1.95;;;17.70;57.80;;;;;;10495634;28;20079;-59
2022/04/25 03:29:48;;;;;;;3.10;2.25;;;17.70;57.80;;;;;;10495364;28;20131;-58
2022/04/25 03:34:49;;;;;;;3.10;1.98;;;17.70;57.90;;;;;;10511169;28;20021;-60
2022/04/25 03:39:50;;;;;;;2.92;1.85;;;17.70;57.80;;;;;;10495280;28;20103;-59
2022/04/25 03:44:50;;;;;;;2.97;1.95;;;17.70;57.80;;;;;;10495485;28;20111;-59
2022/04/25 03:49:51;;;;;;;2.75;2.00;;;17.70;57.80;;;;;;10510881;28;20044;-60
2022/04/25 04:00:11;;;;;;;2.85;2.10;;;17.70;57.70;;;;;;10495411;28;20119;-58
2022/04/25 04:05:13;;;;;;;2.72;1.75;;;17.70;57.70;;;;;;10494494;28;20388;-55
2022/04/25 04:10:13;;;;;;;3.15;1.60;;;17.60;57.70;;;;;;10510506;28;20211;-59
2022/04/25 04:15:16;;;;;;;2.88;1.75;;;17.70;57.80;;;;;;10509743;28;20060;-59
2022/04/25 04:20:17;;;;;;;2.45;1.60;;;17.60;57.70;;;;;;10510195;28;20350;-58
2022/04/25 04:25:18;;;;;;;2.90;1.98;;;17.60;57.70;;;;;;10493929;28;20033;-60
2022/04/25 04:30:18;;;;;;;3.20;2.25;;;17.60;57.80;;;;;;10493440;28;20072;-59
2022/04/25 04:40:38;;;;;;;2.72;2.05;;;17.60;57.80;;;;;;10491521;28;20053;-58
2022/04/25 04:45:42;;;;;;;3.05;1.92;;;17.60;57.90;;;;;;10494579;28;20123;-60
2022/04/25 04:50:42;;;;;;;2.53;1.85;;;17.60;57.90;;;;;;10510214;28;20025;-59
2022/04/25 04:55:43;;;;;;;3.10;2.38;;;17.60;57.90;;;;;;10494711;28;20492;-59
2022/04/25 05:00:44;;;;;;;3.25;1.90;;;17.60;57.90;;;;;;10494788;28;20526;-60
2022/04/25 05:05:45;;;;;;;3.47;2.13;;;17.60;57.90;;;;;;10494213;28;20025;-59
2022/04/25 05:10:47;;;;;;;2.85;2.13;;;17.60;57.90;;;;;;10509897;28;20044;-57
2022/04/25 05:15:48;;;;;;;3.42;2.03;;;17.50;57.80;;;;;;10494586;28;20032;-59
2022/04/25 05:20:48;;;;;;;3.30;2.10;;;17.50;57.90;;;;;;10509546;28;20052;-58
2022/04/25 05:25:49;;;;;;;2.65;1.95;;;17.50;57.90;;;;;;10493940;28;20107;-59
2022/04/25 05:30:50;;;;;;;2.85;2.15;;;17.50;58.00;;;;;;10494058;28;20079;-60
2022/04/25 05:35:52;;;;;;;2.70;1.70;;;17.50;58.00;;;;;;10515470;28;20054;-59
2022/04/25 05:40:53;;;;;;;5.22;1.90;;;17.50;57.90;;;;;;10516976;28;20055;-60
2022/04/25 05:45:54;;;;;;;3.40;2.45;;;17.50;58.00;;;;;;10516474;28;20366;-57
2022/04/25 05:56:14;;;;;;;3.38;2.10;;;17.50;58.00;;;;;;10501231;28;20493;-60
2022/04/25 06:01:15;;;;;;;3.08;1.90;;;17.50;58.10;;;;;;10500047;28;20098;-60
2022/04/25 06:06:20;;;;;;;4.20;2.20;;;17.50;58.10;;;;;;10515924;28;20123;-60
2022/04/25 06:11:21;;;;;;;2.50;2.03;;;17.40;58.00;;;;;;10500384;28;20439;-60
2022/04/25 06:16:22;;;;;;;2.92;1.92;;;17.40;58.10;;;;;;10499936;28;20162;-60
2022/04/25 06:21:23;;;;;;;2.90;2.20;;;17.40;58.10;;;;;;10499621;28;20108;-60
2022/04/25 06:26:23;;;;;;;4.43;2.40;;;17.40;58.10;;;;;;10499315;28;20553;-60
2022/04/25 06:31:24;;;;;;;2.58;2.25;;;17.40;58.20;;;;;;10497493;28;20159;-59
2022/04/25 06:36:25;;;;;;;3.85;2.15;;;17.40;58.20;;;;;;10514643;28;20025;-60
2022/04/25 06:41:26;;;;;;;3.13;2.28;;;17.40;58.20;;;;;;10498733;28;20032;-58
2022/04/25 06:46:28;;;;;;;3.25;2.58;;;17.40;58.20;;;;;;10497449;28;20457;-59
2022/04/25 06:51:30;;;;;;;3.28;2.05;;;17.40;58.30;;;;;;10498424;28;20483;-60
2022/04/25 06:56:31;;;;;;;2.63;1.90;;;17.40;58.30;;;;;;10498318;28;20461;-59
2022/04/25 07:01:33;;;;;;;3.10;2.35;;;17.40;58.30;;;;;;10497960;28;20085;-60
2022/04/25 07:06:34;;;;;;;2.83;1.80;;;17.40;58.40;;;;;;10497682;28;20047;-60
2022/04/25 07:11:35;;;;;;;3.50;2.28;;;17.40;58.50;;;;;;10513001;28;20025;-60
2022/04/25 07:16:35;;;;;;;3.47;2.15;;;17.40;59.10;;;;;;10497318;28;20063;-60
2022/04/25 07:32:15;;;;;;;2.93;2.10;;;17.40;58.60;;;;;;10496746;28;20052;-59
2022/04/25 07:37:18;;;;;;;4.13;2.60;;;17.40;58.60;;;;;;10496820;28;20032;-59
2022/04/25 07:42:18;;;;;;;4.05;2.28;;;17.40;58.60;;;;;;10496336;28;20468;-59
2022/04/25 07:47:20;;;;;;;2.85;2.47;;;17.40;58.60;;;;;;10496349;28;20056;-59
2022/04/25 07:52:21;;;;;;;3.40;2.13;;;17.40;58.60;;;;;;10496085;28;20073;-59
2022/04/25 07:57:23;;;;;;;2.97;2.47;;;17.30;58.60;;;;;;10495465;28;20032;-59
2022/04/25 08:02:23;;;;;;;3.60;1.90;;;17.30;58.60;;;;;;10511527;28;20028;-59
2022/04/25 08:07:24;;;;;;;3.30;2.10;;;17.30;58.60;;;;;;10495640;28;20029;-59
2022/04/25 08:17:59;;;;;;;3.85;3.17;;;17.30;58.70;;;;;;10496182;28;20513;-58
2022/04/25 08:23:00;;;;;;;3.45;2.47;;;17.30;58.70;;;;;;10495419;28;20025;-59
2022/04/25 08:28:02;;;;;;;2.95;2.38;;;17.30;58.70;;;;;;10495242;28;20040;-59
2022/04/25 08:33:02;;;;;;;3.53;2.50;;;17.30;58.70;;;;;;10495308;28;20094;-59
2022/04/25 08:38:03;;;;;;;4.28;2.47;;;17.30;58.70;;;;;;10510681;28;20511;-59
2022/04/25 08:43:06;;;;;;;4.15;2.95;;;17.30;58.80;;;;;;10494895;28;20443;-59
2022/04/25 08:48:07;;;;;;;4.13;2.47;;;17.30;58.80;;;;;;10494916;28;20488;-56
2022/04/25 08:53:10;;;;;;;4.63;2.88;;;17.30;58.80;;;;;;10510313;28;20384;-59
2022/04/25 08:58:11;;;;;;;4.15;3.17;;;17.30;58.80;;;;;;10493500;28;20056;-59
2022/04/25 09:03:14;;;;;;;3.72;2.80;;;17.30;58.80;;;;;;10510117;28;20063;-58
2022/04/25 09:08:14;;;;;;;4.00;2.70;;;17.30;58.80;;;;;;10497112;28;20028;-59
2022/04/25 09:13:15;;;;;;;3.83;2.63;;;17.30;58.80;;;;;;10502244;28;20056;-59
2022/04/25 09:18:17;;;;;;;4.60;3.15;;;17.20;58.90;;;;;;10517804;28;20024;-59
2022/04/25 09:23:21;;;;;;;4.25;3.00;;;17.30;58.90;;;;;;10514834;28;20116;-60
2022/04/25 09:28:22;;;;;;;4.05;2.85;;;17.20;58.90;;;;;;10501650;28;20495;-59
2022/04/25 09:33:23;;;;;;;3.75;3.15;;;17.20;58.90;;;;;;10501132;28;20051;-60
2022/04/25 09:38:33;;;;;;;4.28;3.40;;;17.20;59.00;;;;;;10501328;28;20044;-59
2022/04/25 09:43:36;;;;;;;4.25;3.40;;;17.20;59.00;;;;;;10501497;28;20043;-59
2022/04/25 09:48:41;;;;;;;3.78;2.97;;;17.20;59.00;;;;;;10516926;28;20044;-60
2022/04/25 09:53:50;;;;;;;4.30;3.40;;;17.20;59.00;;;;;;10501110;28;20108;-60
2022/04/25 09:59:08;;;;;;;;;;;17.20;59.10;;;;;;10501241;28;20033;-59
2022/04/25 10:04:36;;;;;;;5.10;3.55;;;17.20;59.10;;;;;;10500767;28;20279;-59
2022/04/25 10:09:37;;;;;;;4.38;3.33;;;17.10;59.10;;;;;;10500125;28;20039;-60
2022/04/25 10:14:38;;;;;;;4.90;3.90;;;17.10;59.10;;;;;;10499994;28;20031;-59
2022/04/25 10:19:41;;;;;;;5.18;3.72;;;17.10;59.20;;;;;;10514989;28;20071;-60
2022/04/25 10:24:44;;;;;;;4.05;3.22;;;17.10;59.20;;;;;;10499398;28;20068;-59
2022/04/25 10:29:51;;;;;;;5.30;3.85;;;17.10;59.20;;;;;;10499247;28;20070;-60
2022/04/25 10:35:01;;;;;;;4.60;3.70;;;17.10;59.30;;;;;;10514715;28;20097;-60
2022/04/25 10:40:08;;;;;;;5.25;3.65;;;17.10;59.30;;;;;;10498821;28;20029;-59
2022/04/25 10:45:09;;;;;;;3.88;3.10;;;17.10;59.30;;;;;;10499401;28;20029;-60
2022/04/25 10:50:10;;;;;;;5.45;3.40;;;17.10;59.20;;;;;;10498537;28;20557;-59
2022/04/25 10:55:22;;;;;;;4.78;3.80;;;17.10;59.20;;;;;;10498622;28;20031;-60
2022/04/25 11:00:37;;;;;;;4.40;3.50;;;17.10;59.30;;;;;;10497912;28;20149;-60
2022/04/25 11:05:54;;;;;;;4.82;3.90;;;17.10;59.30;;;;;;10497580;28;20089;-59
2022/04/25 11:11:03;;;;;;;4.75;3.78;;;17.10;59.40;;;;;;10497679;28;20035;-60
2022/04/25 11:16:21;;;;;;;4.53;3.75;;;17.10;59.40;;;;;;10497464;28;20036;-60
2022/04/25 11:21:32;;;;;;;5.10;4.20;;;17.10;59.40;;;;;;10497279;28;20030;-60
2022/04/25 11:26:36;;;;;;;5.28;3.78;;;17.00;59.40;;;;;;10496783;28;20025;-58
2022/04/25 11:31:40;;;;;;;4.78;3.70;;;17.00;59.40;;;;;;10495945;28;20508;-60
2022/04/25 11:36:43;;;;;;;6.50;4.40;;;17.00;59.40;;;;;;10496921;28;20089;-59
2022/04/25 11:41:45;;;;;;;4.20;3.80;;;17.00;59.40;;;;;;10496529;28;20481;-60
2022/04/25 11:46:47;;;;;;;4.43;3.55;;;17.00;59.40;;;;;;10496647;28;20037;-60
2022/04/25 11:51:50;;;;;;;4.53;3.88;;;17.00;59.40;;;;;;10496305;28;20568;-60
2022/04/25 11:56:51;;;;;;;5.03;3.72;;;17.00;59.40;;;;;;10496193;28;20025;-60
2022/04/25 12:01:52;;;;;;;4.40;3.65;;;17.00;59.50;;;;;;10495878;28;20036;-60
2022/04/25 12:06:59;;;;;;;4.25;3.33;;;17.00;59.50;;;;;;10496692;28;20020;-60
2022/04/25 12:17:20;;;;;;;6.00;4.28;;;17.00;59.40;;;;;;10495655;28;20443;-60
2022/04/25 12:22:22;;;;;;;4.10;3.50;;;17.00;59.50;;;;;;10495688;28;20028;-60
2022/04/25 12:27:23;;;;;;;4.25;3.85;;;17.00;59.40;;;;;;10495378;28;20040;-59
2022/04/25 12:32:24;;;;;;;4.15;3.50;;;17.00;59.50;;;;;;10494765;28;20060;-60
2022/04/25 12:37:24;;;;;;;5.00;3.90;;;17.00;59.40;;;;;;10495691;28;20029;-59
2022/04/25 12:42:44;;;;;;;4.20;3.70;;;17.00;59.40;;;;;;10497789;28;20021;-60
2022/04/25 12:47:45;;;;;;;;;;;17.00;59.50;;;;;;10503618;28;20149;-60
2022/04/25 12:52:49;;;;;;;5.00;3.88;;;17.00;59.50;;;;;;10503178;28;20403;-59
2022/04/25 12:57:51;;;;;;;5.68;4.07;;;17.00;59.50;;;;;;10503047;28;20028;-60
2022/04/25 13:03:02;;;;;;;5.18;4.25;;;17.00;59.50;;;;;;10502622;28;20020;-59
2022/04/25 13:08:04;;;;;;;5.63;4.05;;;16.90;59.50;;;;;;10517935;28;20075;-60
2022/04/25 13:13:04;;;;;;;4.28;3.47;;;17.00;59.60;;;;;;10502526;28;20024;-60
2022/04/25 13:18:06;;;;;;;4.25;3.42;;;17.00;59.60;;;;;;10502173;28;20032;-60
2022/04/25 13:23:07;;;;;;;4.35;3.90;;;16.90;59.50;;;;;;10502207;28;20346;-60
2022/04/25 13:28:07;;;;;;;3.47;3.15;;;17.00;59.60;;;;;;10501933;28;20032;-61
2022/04/25 13:33:08;;;;;;;4.57;4.03;;;16.90;59.60;;;;;;10501347;28;20119;-59
2022/04/25 13:38:09;;;;;;;4.85;3.42;;;16.90;59.60;;;;;;10501168;28;20063;-60
2022/04/25 13:43:09;;;;;;;5.50;3.60;;;16.90;59.60;;;;;;10501293;28;20234;-60
2022/04/25 13:48:10;;;;;;;4.22;3.60;;;16.90;59.60;;;;;;10501160;28;20035;-60
2022/04/25 13:53:11;;;;;;;5.20;4.35;;;16.90;59.60;;;;;;10500432;28;20028;-60
2022/04/25 13:58:12;;;;;;;4.85;3.65;;;16.90;59.60;;;;;;10501117;28;20155;-58
2022/04/25 14:03:13;;;;;;;5.18;3.83;;;16.90;59.60;;;;;;10500829;28;20190;-59
2022/04/25 14:08:14;;;;;;;4.68;3.90;;;16.90;59.60;;;;;;10500204;28;20038;-57
2022/04/25 14:13:15;;;;;;;5.07;4.43;;;16.90;59.60;;;;;;10500094;28;20020;-59
2022/04/25 14:18:16;;;;;;;5.43;4.40;;;16.90;59.60;;;;;;10500065;28;20425;-60
2022/04/25 14:23:17;;;;;;;5.30;4.15;;;16.90;59.60;;;;;;10499379;28;20468;-60
2022/04/25 14:28:18;;;;;;;5.28;3.90;;;16.90;59.60;;;;;;10499429;28;20383;-60
2022/04/25 14:33:19;;;;;;;4.65;3.63;;;16.90;59.60;;;;;;10499221;28;20072;-59
2022/04/25 14:38:22;;;;;;;4.10;3.58;;;16.90;59.60;;;;;;10499242;28;20028;-59
2022/04/25 14:43:24;;;;;;;6.32;4.22;;;16.90;59.60;;;;;;10499396;28;20558;-60
2022/04/25 14:48:24;;;;;;;5.72;4.30;;;16.90;59.60;;;;;;10498749;28;20111;-60
2022/04/25 14:58:45;;;;;;;4.20;3.60;;;16.90;59.70;;;;;;10511914;28;20514;-59
2022/04/25 15:03:46;;;;;;;4.18;3.60;;;16.90;59.60;;;;;;10498010;28;20048;-59
2022/04/25 15:08:47;;;;;;;5.68;4.00;;;16.90;59.60;;;;;;10496999;28;20056;-59
2022/04/25 15:13:48;;;;;;;4.30;3.70;;;16.90;59.60;;;;;;10512760;28;20029;-58
2022/04/25 15:18:48;;;;;;;6.22;4.18;;;16.90;59.70;;;;;;10497627;28;20032;-59
2022/04/25 15:23:49;;;;;;;4.60;4.10;;;16.90;59.70;;;;;;10510200;28;20434;-60
2022/04/25 15:28:50;;;;;;;5.53;4.40;;;16.90;59.70;;;;;;10497489;28;20416;-61
2022/04/25 15:33:50;;;;;;;4.10;3.70;;;16.90;59.70;;;;;;10496827;28;20051;-61
2022/04/25 15:38:52;;;;;;;4.40;3.65;;;16.80;59.70;;;;;;10496781;28;20055;-60
2022/04/25 15:43:53;;;;;;;5.03;4.00;;;16.80;59.70;;;;;;10496266;28;20028;-60
2022/04/25 15:48:54;;;;;;;5.70;3.90;;;16.80;59.70;;;;;;10496403;28;20443;-61
2022/04/25 15:59:14;;;;;;;4.87;3.50;;;16.80;59.70;;;;;;10495916;28;20036;-58
2022/04/25 16:04:14;;;;;;;5.03;4.13;;;16.80;59.70;;;;;;10495954;28;20029;-59
2022/04/25 16:09:15;;;;;;;5.63;4.32;;;16.80;59.70;;;;;;10511651;28;20093;-59
2022/04/25 16:14:16;;;;;;;5.05;4.40;;;16.80;59.70;;;;;;10495633;28;20103;-58
2022/04/25 16:19:17;;;;;;;4.65;4.15;;;16.80;59.70;;;;;;10511068;28;20067;-58
2022/04/25 16:24:17;;;;;;;5.30;4.40;;;16.80;59.70;;;;;;10495183;28;20115;-55
2022/04/25 16:29:18;;;;;;;4.20;3.72;;;16.80;59.70;;;;;;10495354;28;20111;-57
2022/04/25 16:34:19;;;;;;;5.88;4.20;;;16.80;59.70;;;;;;10495159;28;20106;-59
2022/04/25 16:39:21;;;;;;;5.68;4.70;;;16.80;59.70;;;;;;10495188;28;20060;-58
2022/04/25 16:44:22;;;;;;;4.13;3.72;;;16.80;59.70;;;;;;10494900;28;20044;-59
2022/04/25 16:49:23;;;;;;;5.32;4.43;;;16.80;59.70;;;;;;10495004;28;20079;-59
2022/04/25 16:54:24;;;;;;;6.43;4.43;;;16.80;59.70;;;;;;10510744;28;20043;-59
2022/04/25 16:59:26;;;;;;;5.35;4.55;;;16.80;60.30;;;;;;10510496;28;20063;-60
2022/04/25 17:04:27;;;;;;;4.85;4.00;;;16.80;60.40;;;;;;10509936;28;20029;-59
2022/04/25 17:09:28;;;;;;;4.90;4.22;;;16.80;59.70;;;;;;10510457;28;20103;-59
2022/04/25 17:14:28;;;;;;;4.82;4.32;;;16.80;59.70;;;;;;10494423;28;20032;-59
2022/04/25 17:19:29;;;;;;;5.22;4.63;;;16.80;59.80;;;;;;10494319;28;20028;-59
2022/04/25 17:24:31;;;;;;;5.55;4.78;;;16.80;59.80;;;;;;10494152;28;20528;-59
2022/04/25 17:29:33;;;;;;;6.40;4.78;;;16.80;59.80;;;;;;10496514;28;20490;-59
